createdAt,value
2023-04-27T00:01:42.215Z,3.40
2023-04-27T00:04:09.838Z,2.72
2023-04-27T00:06:36.869Z,3.60
2023-04-27T00:09:04.636Z,3.60
2023-04-27T00:11:31.854Z,3.38
2023-04-27T00:13:59.035Z,2.80
2023-04-27T00:16:26.337Z,2.35
2023-04-27T00:18:53.414Z,2.45
2023-04-27T00:21:20.909Z,2.67
2023-04-27T00:23:47.936Z,2.70
2023-04-27T00:26:15.014Z,2.80
2023-04-27T00:28:41.910Z,2.53
2023-04-27T00:31:08.864Z,2.28
2023-04-27T00:33:36.554Z,3.42
2023-04-27T00:36:03.602Z,2.17
2023-04-27T00:38:30.898Z,3.33
2023-04-27T00:41:06.681Z,3.38
2023-04-27T00:43:41.337Z,2.85
2023-04-27T00:46:09.343Z,3.22
2023-04-27T00:48:36.808Z,3.28
2023-04-27T00:51:03.954Z,3.50
2023-04-27T00:53:32.180Z,2.97
2023-04-27T00:55:59.125Z,3.10
2023-04-27T00:58:26.382Z,2.65
2023-04-27T01:00:53.789Z,3.10
2023-04-27T01:03:21.508Z,3.05
2023-04-27T01:05:48.492Z,3.08
2023-04-27T01:08:15.862Z,4.10
2023-04-27T01:10:43.262Z,3.50
2023-04-27T01:13:10.825Z,3.70
2023-04-27T01:15:37.867Z,2.60
2023-04-27T01:18:04.968Z,3.05
2023-04-27T01:20:32.529Z,3.88
2023-04-27T01:22:59.926Z,3.95
2023-04-27T01:25:27.074Z,2.70
2023-04-27T01:27:54.513Z,2.85
2023-04-27T01:30:22.777Z,2.75
2023-04-27T01:32:50.486Z,2.20
2023-04-27T01:35:17.731Z,3.35
2023-04-27T01:37:44.743Z,3.42
2023-04-27T01:40:12.083Z,3.03
2023-04-27T01:42:39.525Z,3.13
2023-04-27T01:45:07.292Z,3.85
2023-04-27T01:47:34.696Z,4.07
2023-04-27T01:50:02.342Z,3.30
2023-04-27T01:52:29.574Z,2.65
2023-04-27T01:54:57.008Z,3.25
2023-04-27T01:57:23.970Z,2.55
2023-04-27T01:59:51.399Z,3.20
2023-04-27T02:02:18.415Z,2.53
2023-04-27T02:04:45.622Z,2.53
2023-04-27T02:07:12.656Z,2.45
2023-04-27T02:09:39.661Z,2.90
2023-04-27T02:12:06.911Z,2.40
2023-04-27T02:14:34.110Z,2.53
2023-04-27T02:17:01.096Z,2.30
2023-04-27T02:19:28.096Z,2.75
2023-04-27T02:21:55.041Z,2.95
2023-04-27T02:24:21.927Z,2.70
2023-04-27T02:26:48.887Z,2.47
2023-04-27T02:29:17.227Z,2.28
2023-04-27T02:31:45.068Z,3.40
2023-04-27T02:34:12.583Z,3.58
2023-04-27T02:36:39.509Z,3.78
2023-04-27T02:39:06.421Z,4.07
2023-04-27T02:41:33.449Z,4.18
2023-04-27T02:44:00.473Z,3.13
2023-04-27T02:46:27.516Z,4.43
2023-04-27T02:48:55.882Z,3.20
2023-04-27T02:51:23.072Z,3.28
2023-04-27T02:53:50.228Z,3.25
2023-04-27T02:56:17.456Z,2.53
2023-04-27T02:58:45.306Z,2.97
2023-04-27T03:01:12.814Z,3.60
2023-04-27T03:03:40.136Z,2.90
2023-04-27T03:06:07.288Z,2.97
2023-04-27T03:08:34.256Z,3.58
2023-04-27T03:11:01.302Z,3.35
2023-04-27T03:13:28.604Z,2.53
2023-04-27T03:15:55.862Z,3.25
2023-04-27T03:18:23.124Z,1.80
2023-04-27T03:20:50.145Z,2.38
2023-04-27T03:23:17.175Z,2.33
2023-04-27T03:25:44.278Z,3.63
2023-04-27T03:28:11.438Z,3.33
2023-04-27T03:30:41.084Z,3.60
2023-04-27T03:33:08.084Z,2.40
2023-04-27T03:35:35.031Z,2.35
2023-04-27T03:38:02.196Z,2.45
2023-04-27T03:40:29.189Z,2.88
2023-04-27T03:42:57.998Z,2.25
2023-04-27T03:45:26.384Z,2.20
2023-04-27T03:47:53.546Z,3.30
2023-04-27T03:50:20.763Z,3.17
2023-04-27T03:52:47.705Z,3.75
2023-04-27T03:55:14.741Z,2.50
2023-04-27T03:57:41.990Z,3.55
2023-04-27T04:00:11.764Z,2.72
2023-04-27T04:02:39.598Z,3.53
2023-04-27T04:05:06.964Z,3.75
2023-04-27T04:07:33.920Z,2.30
2023-04-27T04:10:00.996Z,4.00
2023-04-27T04:12:27.927Z,3.47
2023-04-27T04:14:54.911Z,3.42
2023-04-27T04:17:22.053Z,3.33
2023-04-27T04:19:49.213Z,3.53
2023-04-27T04:22:16.391Z,3.03
2023-04-27T04:24:43.932Z,3.55
2023-04-27T04:27:11.044Z,3.97
2023-04-27T04:29:39.206Z,3.30
2023-04-27T04:32:07.778Z,3.33
2023-04-27T04:34:34.803Z,4.00
2023-04-27T04:37:02.290Z,3.50
2023-04-27T04:39:33.324Z,3.35
2023-04-27T04:42:00.331Z,3.08
2023-04-27T04:44:27.482Z,3.20
2023-04-27T04:46:55.815Z,2.92
2023-04-27T04:49:22.903Z,2.40
2023-04-27T04:51:49.910Z,2.38
2023-04-27T04:54:16.822Z,2.72
2023-04-27T04:56:43.776Z,2.60
2023-04-27T04:59:10.735Z,3.10
2023-04-27T05:01:38.044Z,3.50
2023-04-27T05:04:05.385Z,2.60
2023-04-27T05:06:32.737Z,2.42
2023-04-27T05:08:59.808Z,2.80
2023-04-27T05:11:27.057Z,2.47
2023-04-27T05:13:54.212Z,2.55
2023-04-27T05:16:21.741Z,2.72
2023-04-27T05:18:48.717Z,3.05
2023-04-27T05:21:16.727Z,2.80
2023-04-27T05:23:43.730Z,2.40
2023-04-27T05:26:18.182Z,2.63
2023-04-27T05:28:47.533Z,2.90
2023-04-27T05:31:14.596Z,3.97
2023-04-27T05:33:41.751Z,3.15
2023-04-27T05:36:09.513Z,3.38
2023-04-27T05:38:40.196Z,3.13
2023-04-27T05:41:07.617Z,3.35
2023-04-27T05:43:35.441Z,2.88
2023-04-27T05:46:02.359Z,3.83
2023-04-27T05:48:29.544Z,3.10
2023-04-27T05:51:03.843Z,3.22
2023-04-27T05:53:31.052Z,3.65
2023-04-27T05:55:59.368Z,4.00
2023-04-27T05:58:26.850Z,3.85
2023-04-27T06:00:54.607Z,3.88
2023-04-27T06:03:21.974Z,3.63
2023-04-27T06:05:58.987Z,2.90
2023-04-27T06:08:27.303Z,3.28
2023-04-27T06:10:54.678Z,3.05
2023-04-27T06:13:22.057Z,3.28
2023-04-27T06:15:49.132Z,3.00
2023-04-27T06:18:16.595Z,3.97
2023-04-27T06:20:43.561Z,3.90
2023-04-27T06:23:10.569Z,3.15
2023-04-27T06:25:38.975Z,3.65
2023-04-27T06:28:06.395Z,3.25
2023-04-27T06:30:33.346Z,3.28
2023-04-27T06:33:00.428Z,3.03
2023-04-27T06:35:27.607Z,4.30
2023-04-27T06:37:58.837Z,3.80
2023-04-27T06:40:27.064Z,4.00
2023-04-27T06:42:54.609Z,3.80
2023-04-27T06:45:21.852Z,3.60
2023-04-27T06:47:49.023Z,4.30
2023-04-27T06:50:16.589Z,3.75
2023-04-27T06:52:43.986Z,3.65
2023-04-27T06:55:11.164Z,4.35
2023-04-27T06:57:38.374Z,3.63
2023-04-27T07:00:05.918Z,3.60
2023-04-27T07:02:32.983Z,4.05
2023-04-27T07:05:00.333Z,3.80
2023-04-27T07:07:27.448Z,4.00
2023-04-27T07:09:54.585Z,3.60
2023-04-27T07:12:21.495Z,3.65
2023-04-27T07:14:50.808Z,3.72
2023-04-27T07:17:18.074Z,3.90
2023-04-27T07:19:45.036Z,4.03
2023-04-27T07:22:12.249Z,3.95
2023-04-27T07:24:39.276Z,4.25
2023-04-27T07:27:06.433Z,4.40
2023-04-27T07:29:34.290Z,3.63
2023-04-27T07:32:01.624Z,4.05
2023-04-27T07:34:35.257Z,3.70
2023-04-27T07:37:09.334Z,4.05
2023-04-27T07:39:36.833Z,4.40
2023-04-27T07:42:04.386Z,5.07
2023-04-27T07:44:31.436Z,4.40
2023-04-27T07:46:58.680Z,4.60
2023-04-27T07:49:26.445Z,4.03
2023-04-27T07:51:53.415Z,5.18
2023-04-27T07:54:20.839Z,3.97
2023-04-27T07:56:47.780Z,5.03
2023-04-27T07:59:15.630Z,4.57
2023-04-27T08:01:42.960Z,4.85
2023-04-27T08:04:10.133Z,5.20
2023-04-27T08:06:38.043Z,4.30
2023-04-27T08:09:05.843Z,5.13
2023-04-27T08:11:32.791Z,5.00
2023-04-27T08:13:59.845Z,5.50
2023-04-27T08:16:26.891Z,5.15
2023-04-27T08:18:54.044Z,5.72
2023-04-27T08:21:20.965Z,5.78
2023-04-27T08:23:48.116Z,5.93
2023-04-27T08:26:16.734Z,5.82
2023-04-27T08:28:43.898Z,6.20
2023-04-27T08:31:11.006Z,5.70
2023-04-27T08:33:37.964Z,6.18
2023-04-27T08:36:05.305Z,5.25
2023-04-27T08:38:35.013Z,6.07
2023-04-27T08:41:10.884Z,7.10
2023-04-27T08:43:50.302Z,5.72
2023-04-27T08:46:21.596Z,5.68
2023-04-27T08:48:52.298Z,6.18
2023-04-27T08:51:20.423Z,5.97
2023-04-27T08:53:58.255Z,6.60
2023-04-27T08:56:28.035Z,5.65
2023-04-27T08:58:57.094Z,5.95
2023-04-27T09:01:26.370Z,6.15
2023-04-27T09:04:02.134Z,5.90
2023-04-27T09:06:38.344Z,6.63
2023-04-27T09:09:07.053Z,7.28
2023-04-27T09:11:39.405Z,5.13
2023-04-27T09:14:21.215Z,6.60
2023-04-27T09:16:59.700Z,6.22
2023-04-27T09:19:31.078Z,5.65
2023-04-27T09:22:09.389Z,5.70
2023-04-27T09:24:37.026Z,5.50
2023-04-27T09:27:05.382Z,5.63
2023-04-27T09:29:37.747Z,6.30
2023-04-27T09:32:19.210Z,5.57
2023-04-27T09:34:46.790Z,5.07
2023-04-27T09:37:15.037Z,5.28
2023-04-27T09:39:43.209Z,5.32
2023-04-27T09:42:12.546Z,5.57
2023-04-27T09:44:40.729Z,5.18
2023-04-27T09:47:08.449Z,5.55
2023-04-27T09:49:36.446Z,5.82
2023-04-27T09:52:04.291Z,5.63
2023-04-27T09:54:33.802Z,5.57
2023-04-27T09:57:16.043Z,4.70
2023-04-27T10:00:11.156Z,5.57
2023-04-27T10:03:02.579Z,5.63
2023-04-27T10:05:52.691Z,5.75
2023-04-27T10:08:20.865Z,5.35
2023-04-27T10:10:51.483Z,5.28
2023-04-27T10:13:26.615Z,6.38
2023-04-27T10:15:54.435Z,5.25
2023-04-27T10:18:31.513Z,6.82
2023-04-27T10:21:10.976Z,5.78
2023-04-27T10:23:55.252Z,6.05
2023-04-27T10:26:27.571Z,6.75
2023-04-27T10:29:16.552Z,5.53
2023-04-27T10:31:48.925Z,5.50
2023-04-27T10:34:21.392Z,7.05
2023-04-27T10:36:48.777Z,5.97
2023-04-27T10:39:29.878Z,6.40
2023-04-27T10:42:03.334Z,5.85
2023-04-27T10:44:32.639Z,6.53
2023-04-27T10:47:16.854Z,6.63
2023-04-27T10:49:44.310Z,6.25
2023-04-27T10:52:11.640Z,6.78
2023-04-27T10:54:39.914Z,6.38
2023-04-27T10:57:11.113Z,6.78
2023-04-27T10:59:52.855Z,8.38
2023-04-27T11:02:27.708Z,7.13
2023-04-27T11:04:56.326Z,7.28
2023-04-27T11:07:28.234Z,5.90
2023-04-27T11:09:55.822Z,7.07
2023-04-27T11:12:23.270Z,6.25
2023-04-27T11:14:50.544Z,7.63
2023-04-27T11:17:27.694Z,6.45
2023-04-27T11:19:54.639Z,7.18
2023-04-27T11:22:21.914Z,6.28
2023-04-27T11:24:50.113Z,6.35
2023-04-27T11:27:18.272Z,8.52
2023-04-27T11:29:45.800Z,7.13
2023-04-27T11:32:23.074Z,6.82
2023-04-27T11:34:53.477Z,7.70
2023-04-27T11:37:24.186Z,7.32
2023-04-27T11:39:52.001Z,7.78
2023-04-27T11:42:28.815Z,7.68
2023-04-27T11:45:03.182Z,6.70
2023-04-27T11:47:31.830Z,7.45
2023-04-27T11:50:02.523Z,7.40
2023-04-27T11:52:31.957Z,7.05
2023-04-27T11:55:00.594Z,7.18
2023-04-27T11:57:29.560Z,8.25
2023-04-27T12:00:00.631Z,7.30
2023-04-27T12:02:28.910Z,6.90
2023-04-27T12:04:56.238Z,7.65
2023-04-27T12:07:23.711Z,6.47
2023-04-27T12:09:50.643Z,7.18
2023-04-27T12:12:22.519Z,7.18
2023-04-27T12:14:50.677Z,6.93
2023-04-27T12:17:18.141Z,5.85
2023-04-27T12:19:45.201Z,7.05
2023-04-27T12:22:12.167Z,7.65
2023-04-27T12:24:39.639Z,7.32
2023-04-27T12:27:08.103Z,7.22
2023-04-27T12:29:35.106Z,7.50
2023-04-27T12:32:02.105Z,6.70
2023-04-27T12:34:29.086Z,7.68
2023-04-27T12:36:56.357Z,8.35
2023-04-27T12:39:25.462Z,8.55
2023-04-27T12:41:53.916Z,8.73
2023-04-27T12:44:21.518Z,9.02
2023-04-27T12:46:49.178Z,7.82
2023-04-27T12:49:16.611Z,9.35
2023-04-27T12:51:43.672Z,8.23
2023-04-27T12:54:12.725Z,9.02
2023-04-27T12:56:40.137Z,9.02
2023-04-27T12:59:07.166Z,8.40
2023-04-27T13:01:34.251Z,8.40
2023-04-27T13:04:03.866Z,8.90
2023-04-27T13:06:32.155Z,9.02
2023-04-27T13:09:00.149Z,8.15
2023-04-27T13:11:27.504Z,8.48
2023-04-27T13:13:55.390Z,8.73
2023-04-27T13:16:25.532Z,8.60
2023-04-27T13:18:53.962Z,9.57
2023-04-27T13:21:21.372Z,8.23
2023-04-27T13:23:49.651Z,8.48
2023-04-27T13:26:17.179Z,8.25
2023-04-27T13:28:44.092Z,8.95
2023-04-27T13:31:11.435Z,8.57
2023-04-27T13:33:43.143Z,8.13
2023-04-27T13:36:11.563Z,8.73
2023-04-27T13:38:38.626Z,8.40
2023-04-27T13:41:06.358Z,8.30
2023-04-27T13:43:33.642Z,9.07
2023-04-27T13:46:01.684Z,8.63
2023-04-27T13:48:29.332Z,8.85
2023-04-27T13:50:56.723Z,9.40
2023-04-27T13:53:25.997Z,9.65
2023-04-27T13:55:57.588Z,8.88
2023-04-27T13:58:26.295Z,8.82
2023-04-27T14:00:54.029Z,8.40
2023-04-27T14:03:21.638Z,8.80
2023-04-27T14:05:51.050Z,9.80
2023-04-27T14:08:18.823Z,9.75
2023-04-27T14:10:46.136Z,9.88
2023-04-27T14:13:13.694Z,8.98
2023-04-27T14:15:41.605Z,8.90
2023-04-27T14:18:09.829Z,9.57
2023-04-27T14:20:38.347Z,9.38
2023-04-27T14:23:06.494Z,10.10
2023-04-27T14:25:34.822Z,9.38
2023-04-27T14:28:04.217Z,9.93
2023-04-27T14:30:36.050Z,10.43
2023-04-27T14:33:03.617Z,9.18
2023-04-27T14:35:34.578Z,10.13
2023-04-27T14:38:04.629Z,10.45
2023-04-27T14:40:32.300Z,10.38
2023-04-27T14:42:59.757Z,9.30
2023-04-27T14:45:33.546Z,10.82
2023-04-27T14:48:04.820Z,10.10
2023-04-27T14:50:32.243Z,9.95
2023-04-27T14:52:59.143Z,9.55
2023-04-27T14:55:26.279Z,11.20
2023-04-27T14:57:53.304Z,11.30
2023-04-27T15:00:20.424Z,10.88
2023-04-27T15:02:47.642Z,11.77
2023-04-27T15:05:14.971Z,11.25
2023-04-27T15:07:42.394Z,11.80
2023-04-27T15:10:09.802Z,11.93
2023-04-27T15:12:36.829Z,12.95
2023-04-27T15:15:03.999Z,12.38
2023-04-27T15:17:31.095Z,12.27
2023-04-27T15:19:58.212Z,13.60
2023-04-27T15:22:25.200Z,12.25
2023-04-27T15:24:54.239Z,12.00
2023-04-27T15:27:21.139Z,11.38
2023-04-27T15:29:48.749Z,13.43
2023-04-27T15:32:16.492Z,14.70
2023-04-27T15:34:44.890Z,13.85
2023-04-27T15:37:12.467Z,11.27
2023-04-27T15:39:39.669Z,13.48
2023-04-27T15:42:06.858Z,13.55
2023-04-27T15:44:33.916Z,13.88
2023-04-27T15:47:00.922Z,14.48
2023-04-27T15:49:28.393Z,15.38
2023-04-27T15:51:55.561Z,16.40
2023-04-27T15:54:22.547Z,15.02
2023-04-27T15:56:49.755Z,15.30
2023-04-27T15:59:16.898Z,15.40
2023-04-27T16:01:44.007Z,16.02
2023-04-27T16:04:11.200Z,17.40
2023-04-27T16:06:38.694Z,18.67
2023-04-27T16:09:09.751Z,18.80
2023-04-27T16:11:37.459Z,19.15
2023-04-27T16:14:04.571Z,18.02
2023-04-27T16:16:32.731Z,20.05
2023-04-27T16:18:59.772Z,19.20
2023-04-27T16:21:28.165Z,18.90
2023-04-27T16:23:55.101Z,19.35
2023-04-27T16:26:22.076Z,18.77
2023-04-27T16:28:49.095Z,18.75
2023-04-27T16:31:16.748Z,18.75
2023-04-27T16:33:43.664Z,19.80
2023-04-27T16:36:11.014Z,17.90
2023-04-27T16:38:39.275Z,20.63
2023-04-27T16:41:06.573Z,20.00
2023-04-27T16:43:34.021Z,17.92
2023-04-27T16:46:01.213Z,20.25
2023-04-27T16:48:28.683Z,19.20
2023-04-27T16:50:56.274Z,22.60
2023-04-27T16:53:23.725Z,19.00
2023-04-27T16:55:50.700Z,17.85
2023-04-27T16:58:17.665Z,19.60
2023-04-27T17:00:44.665Z,21.27
2023-04-27T17:03:11.715Z,20.00
2023-04-27T17:05:38.924Z,20.17
2023-04-27T17:08:06.632Z,20.58
2023-04-27T17:10:33.658Z,20.38
2023-04-27T17:13:00.621Z,21.20
2023-04-27T17:15:28.747Z,20.95
2023-04-27T17:17:56.330Z,22.88
2023-04-27T17:20:23.342Z,24.30
2023-04-27T17:22:50.271Z,21.98
2023-04-27T17:25:17.738Z,23.13
2023-04-27T17:27:44.730Z,23.30
2023-04-27T17:30:12.123Z,23.00
2023-04-27T17:32:39.353Z,23.30
2023-04-27T17:35:07.035Z,24.63
2023-04-27T17:37:34.036Z,23.08
2023-04-27T17:40:00.976Z,22.75
2023-04-27T17:42:28.258Z,20.90
2023-04-27T17:44:55.748Z,20.90
2023-04-27T17:47:26.118Z,23.05
2023-04-27T17:49:53.045Z,22.05
2023-04-27T17:52:20.042Z,21.08
2023-04-27T17:54:48.202Z,22.63
2023-04-27T17:57:16.496Z,21.83
2023-04-27T17:59:43.535Z,21.77
2023-04-27T18:02:10.556Z,24.05
2023-04-27T18:04:37.724Z,25.13
2023-04-27T18:07:04.824Z,22.98
2023-04-27T18:09:33.122Z,23.55
2023-04-27T18:12:00.385Z,23.75
2023-04-27T18:14:27.327Z,24.08
2023-04-27T18:16:55.008Z,25.13
2023-04-27T18:19:22.519Z,22.90
2023-04-27T18:21:49.809Z,23.40
2023-04-27T18:24:16.808Z,25.05
2023-04-27T18:26:43.762Z,24.60
2023-04-27T18:29:10.706Z,24.23
2023-04-27T18:31:38.231Z,24.17
2023-04-27T18:34:05.167Z,25.45
2023-04-27T18:36:32.406Z,23.25
2023-04-27T18:38:59.754Z,24.33
2023-04-27T18:41:26.884Z,24.92
2023-04-27T18:43:53.787Z,27.05
2023-04-27T18:46:21.301Z,23.70
2023-04-27T18:48:48.336Z,23.27
2023-04-27T18:51:15.227Z,23.83
2023-04-27T18:53:42.369Z,22.20
2023-04-27T18:56:10.326Z,21.20
2023-04-27T18:58:37.294Z,22.88
2023-04-27T19:01:04.795Z,22.02
2023-04-27T19:03:32.130Z,19.48
2023-04-27T19:06:02.064Z,20.48
2023-04-27T19:08:29.061Z,20.50
2023-04-27T19:10:57.426Z,21.02
2023-04-27T19:13:25.533Z,19.60
2023-04-27T19:15:52.464Z,18.05
2023-04-27T19:18:19.867Z,18.92
2023-04-27T19:20:46.897Z,17.75
2023-04-27T19:23:14.189Z,20.08
2023-04-27T19:25:41.151Z,19.67
2023-04-27T19:28:08.190Z,18.63
2023-04-27T19:30:35.253Z,17.73
2023-04-27T19:33:03.303Z,17.75
2023-04-27T19:35:30.429Z,17.55
2023-04-27T19:37:57.422Z,18.02
2023-04-27T19:40:25.018Z,19.15
2023-04-27T19:42:52.011Z,18.80
2023-04-27T19:45:19.145Z,17.75
2023-04-27T19:47:46.356Z,16.20
2023-04-27T19:50:13.608Z,17.35
2023-04-27T19:52:40.801Z,17.42
2023-04-27T19:55:08.661Z,17.50
2023-04-27T19:57:35.700Z,16.05
2023-04-27T20:00:05.278Z,18.85
2023-04-27T20:02:32.500Z,16.73
2023-04-27T20:04:59.894Z,17.85
2023-04-27T20:07:27.108Z,18.73
2023-04-27T20:09:54.447Z,16.63
2023-04-27T20:12:43.457Z,17.02
2023-04-27T20:15:09.527Z,17.40
2023-04-27T20:17:36.855Z,17.80
2023-04-27T20:20:06.943Z,17.67
2023-04-27T20:22:34.139Z,17.05
2023-04-27T20:25:01.179Z,17.48
2023-04-27T20:27:28.250Z,19.08
2023-04-27T20:29:55.434Z,18.33
2023-04-27T20:32:22.432Z,15.82
2023-04-27T20:34:49.427Z,17.73
2023-04-27T20:37:17.130Z,17.40
2023-04-27T20:39:44.064Z,15.80
2023-04-27T20:42:12.775Z,20.10
2023-04-27T20:44:39.843Z,16.02
2023-04-27T20:47:06.757Z,17.13
2023-04-27T20:49:35.306Z,16.05
2023-04-27T20:52:03.066Z,15.18
2023-04-27T20:54:33.647Z,14.20
2023-04-27T20:57:04.053Z,15.63
2023-04-27T20:59:31.137Z,15.07
2023-04-27T21:01:58.643Z,14.75
2023-04-27T21:04:25.748Z,14.60
2023-04-27T21:06:53.396Z,14.13
2023-04-27T21:09:20.339Z,14.02
2023-04-27T21:11:47.806Z,14.95
2023-04-27T21:14:15.173Z,15.93
2023-04-27T21:16:42.691Z,15.48
2023-04-27T21:19:13.144Z,14.48
2023-04-27T21:21:40.391Z,13.63
2023-04-27T21:24:19.222Z,14.13
2023-04-27T21:26:46.555Z,15.02
2023-04-27T21:29:13.489Z,14.80
2023-04-27T21:31:40.582Z,15.82
2023-04-27T21:34:08.315Z,16.10
2023-04-27T21:36:35.765Z,14.38
2023-04-27T21:39:03.204Z,15.18
2023-04-27T21:41:30.406Z,15.80
2023-04-27T21:43:57.450Z,14.57
2023-04-27T21:46:24.637Z,14.98
2023-04-27T21:48:51.837Z,16.60
2023-04-27T21:51:19.910Z,17.73
2023-04-27T21:53:47.136Z,15.38
2023-04-27T21:56:14.315Z,16.33
2023-04-27T21:58:41.312Z,17.73
2023-04-27T22:01:08.212Z,16.02
2023-04-27T22:03:35.428Z,16.33
2023-04-27T22:06:02.531Z,18.25
2023-04-27T22:08:29.891Z,18.23
2023-04-27T22:10:57.749Z,16.50
2023-04-27T22:13:24.979Z,13.70
2023-04-27T22:15:52.507Z,15.20
2023-04-27T22:18:20.060Z,19.35
2023-04-27T22:20:47.425Z,18.60
2023-04-27T22:23:14.588Z,15.38
2023-04-27T22:25:43.333Z,15.65
2023-04-27T22:28:11.108Z,18.25
2023-04-27T22:30:38.808Z,16.90
2023-04-27T22:33:06.404Z,16.67
2023-04-27T22:35:36.635Z,18.83
2023-04-27T22:38:03.807Z,17.70
2023-04-27T22:40:30.921Z,18.02
2023-04-27T22:42:58.324Z,19.40
2023-04-27T22:45:25.234Z,17.83
2023-04-27T22:47:52.227Z,18.38
2023-04-27T22:50:19.558Z,18.13
2023-04-27T22:52:46.880Z,17.08
2023-04-27T22:55:13.798Z,16.80
2023-04-27T22:57:41.899Z,19.73
2023-04-27T23:00:11.825Z,17.75
2023-04-27T23:02:39.909Z,18.60
2023-04-27T23:05:07.686Z,20.70
2023-04-27T23:07:35.333Z,20.50
2023-04-27T23:10:03.336Z,21.08
2023-04-27T23:12:31.608Z,22.60
2023-04-27T23:14:59.338Z,19.20
2023-04-27T23:17:33.023Z,22.45
2023-04-27T23:20:01.814Z,21.98
2023-04-27T23:22:29.781Z,19.50
2023-04-27T23:24:56.798Z,23.13
2023-04-27T23:27:25.045Z,21.05
2023-04-27T23:29:52.953Z,20.75
2023-04-27T23:32:20.360Z,19.17
2023-04-27T23:34:48.026Z,19.73
2023-04-27T23:37:14.975Z,23.45
2023-04-27T23:39:42.144Z,19.08
2023-04-27T23:42:09.294Z,20.65
2023-04-27T23:44:36.263Z,20.65
2023-04-27T23:47:03.597Z,21.40
2023-04-27T23:49:30.533Z,19.38
2023-04-27T23:51:57.501Z,19.80
2023-04-27T23:54:24.585Z,22.00
2023-04-27T23:56:51.900Z,22.50
2023-04-27T23:59:19.202Z,18.98
